Time;durP1;ratioP1;P1;durP2;ratioP2;P2;SDS_P1;SDS_P2;PMS_P1;PMS_P2;Temp;Humidity;BMP_temperature;BMP_pressure;BME280_temperature;BME280_humidity;BME280_pressure;Samples;Min_cycle;Max_cycle;Signal;HPM_P1;HPM_P2
2022/10/08 00:01:44;;;;;;;13.85;10.10;;;;;;;;;;5084760;28;20210;-68
2022/10/08 00:04:12;;;;;;;13.80;9.07;;;;;;;;;;5084596;28;20235;-69
2022/10/08 00:06:38;;;;;;;16.05;9.77;;;;;;;;;;5084445;28;20250;-68
2022/10/08 00:09:06;;;;;;;12.05;9.05;;;;;;;;;;5084718;28;20379;-68
2022/10/08 00:11:34;;;;;;;10.70;9.43;;;;;;;;;;5084517;28;20200;-71
2022/10/08 00:14:00;;;;;;;13.68;9.43;;;;;;;;;;5084148;28;20203;-71
2022/10/08 00:16:28;;;;;;;12.65;8.75;;;;;;;;;;5084163;28;20239;-71
2022/10/08 00:18:55;;;;;;;14.52;9.00;;;;;;;;;;5084569;28;20203;-71
2022/10/08 00:21:24;;;;;;;13.02;9.40;;;;;;;;;;5084171;28;20196;-71
2022/10/08 00:23:51;;;;;;;10.75;8.43;;;;;;;;;;5083951;28;20203;-69
2022/10/08 00:26:22;;;;;;;12.90;8.95;;;;;;;;;;5084205;28;20193;-69
2022/10/08 00:28:49;;;;;;;11.23;8.02;;;;;;;;;;5084316;28;20204;-69
2022/10/08 00:31:17;;;;;;;10.38;8.50;;;;;;;;;;5084337;28;20469;-68
2022/10/08 00:33:44;;;;;;;11.45;8.13;;;;;;;;;;5084148;28;20408;-68
2022/10/08 00:36:11;;;;;;;13.85;8.88;;;;;;;;;;5083573;28;20250;-68
2022/10/08 00:38:39;;;;;;;15.65;9.05;;;;;;;;;;5084263;28;20204;-69
2022/10/08 00:41:06;;;;;;;10.55;7.95;;;;;;;;;;5083965;28;20279;-69
2022/10/08 00:43:37;;;;;;;13.30;8.40;;;;;;;;;;5083861;28;20200;-69
2022/10/08 00:46:04;;;;;;;9.82;8.93;;;;;;;;;;5083936;28;20198;-68
2022/10/08 00:48:31;;;;;;;9.93;8.13;;;;;;;;;;5084401;28;20200;-69
2022/10/08 00:50:57;;;;;;;12.15;8.73;;;;;;;;;;5083785;28;20204;-68
2022/10/08 00:53:23;;;;;;;13.77;8.18;;;;;;;;;;5083453;28;20202;-68
2022/10/08 00:55:51;;;;;;;18.70;10.32;;;;;;;;;;5083648;28;20215;-69
2022/10/08 00:58:19;;;;;;;10.20;9.23;;;;;;;;;;5083810;28;20200;-69
2022/10/08 01:00:46;;;;;;;13.43;9.95;;;;;;;;;;5083620;28;20268;-69
2022/10/08 01:03:13;;;;;;;11.30;10.00;;;;;;;;;;5083361;28;20196;-68
2022/10/08 01:05:44;;;;;;;11.27;10.13;;;;;;;;;;5083685;28;20453;-68
2022/10/08 01:08:14;;;;;;;12.90;10.13;;;;;;;;;;5083715;28;20188;-69
2022/10/08 01:10:45;;;;;;;12.70;9.93;;;;;;;;;;5083394;28;20197;-69
2022/10/08 01:13:17;;;;;;;12.73;8.77;;;;;;;;;;5083392;28;20203;-69
2022/10/08 01:15:48;;;;;;;10.63;9.38;;;;;;;;;;5083251;28;20226;-69
2022/10/08 01:18:19;;;;;;;11.02;9.82;;;;;;;;;;5083240;28;20200;-69
2022/10/08 01:20:51;;;;;;;11.75;10.52;;;;;;;;;;5083637;28;20364;-69
2022/10/08 01:23:29;;;;;;;12.25;9.90;;;;;;;;;;5082833;28;20196;-69
2022/10/08 01:25:56;;;;;;;13.82;10.20;;;;;;;;;;5083364;28;20180;-69
2022/10/08 01:28:27;;;;;;;12.38;10.10;;;;;;;;;;5082768;28;20203;-70
2022/10/08 01:30:56;;;;;;;11.40;10.10;;;;;;;;;;5082957;28;20526;-70
2022/10/08 01:33:24;;;;;;;10.60;9.50;;;;;;;;;;5082679;28;20288;-71
2022/10/08 01:35:55;;;;;;;12.45;10.05;;;;;;;;;;5082904;28;20223;-71
2022/10/08 01:38:23;;;;;;;15.35;9.90;;;;;;;;;;5082789;28;20196;-70
2022/10/08 01:40:50;;;;;;;13.32;9.85;;;;;;;;;;5082932;28;20197;-70
2022/10/08 01:43:19;;;;;;;11.25;9.20;;;;;;;;;;5082654;28;20197;-70
2022/10/08 01:45:49;;;;;;;11.02;10.00;;;;;;;;;;5082707;28;20477;-70
2022/10/08 01:48:18;;;;;;;11.93;9.80;;;;;;;;;;5082612;28;20185;-70
2022/10/08 01:50:46;;;;;;;12.63;10.23;;;;;;;;;;5082484;28;20271;-71
2022/10/08 01:53:14;;;;;;;13.20;9.98;;;;;;;;;;5082679;28;20210;-70
2022/10/08 01:55:41;;;;;;;11.20;10.10;;;;;;;;;;5082666;28;20419;-70
2022/10/08 01:58:11;;;;;;;13.02;10.00;;;;;;;;;;5082600;28;20495;-69
2022/10/08 02:00:38;;;;;;;12.48;9.93;;;;;;;;;;5082740;28;20202;-69
2022/10/08 02:03:05;;;;;;;12.57;10.27;;;;;;;;;;5082235;28;20204;-69
2022/10/08 02:05:33;;;;;;;13.57;9.38;;;;;;;;;;5082242;28;20216;-70
2022/10/08 02:08:00;;;;;;;10.98;9.63;;;;;;;;;;5082557;28;20502;-70
2022/10/08 02:10:27;;;;;;;10.25;9.32;;;;;;;;;;5082518;28;20196;-70
2022/10/08 02:12:54;;;;;;;11.90;9.82;;;;;;;;;;5082258;28;20496;-70
2022/10/08 02:15:22;;;;;;;10.23;9.23;;;;;;;;;;5082736;28;20219;-70
2022/10/08 02:17:52;;;;;;;12.00;9.82;;;;;;;;;;5082405;28;20531;-70
2022/10/08 02:20:21;;;;;;;10.05;9.02;;;;;;;;;;5082316;28;20204;-71
2022/10/08 02:22:52;;;;;;;13.07;9.25;;;;;;;;;;5082248;28;20196;-70
2022/10/08 02:25:22;;;;;;;16.35;9.77;;;;;;;;;;5082290;28;20201;-71
2022/10/08 02:27:53;;;;;;;13.93;9.65;;;;;;;;;;5082294;28;20214;-70
2022/10/08 02:30:20;;;;;;;11.18;8.88;;;;;;;;;;5081937;28;20204;-71
2022/10/08 02:32:49;;;;;;;9.65;8.65;;;;;;;;;;5081922;28;20204;-70
2022/10/08 02:35:18;;;;;;;10.68;9.57;;;;;;;;;;5082061;28;20373;-70
2022/10/08 02:37:50;;;;;;;15.82;8.63;;;;;;;;;;5082152;28;20227;-70
2022/10/08 02:40:17;;;;;;;18.08;8.88;;;;;;;;;;5082321;28;20547;-71
2022/10/08 02:42:51;;;;;;;15.15;9.10;;;;;;;;;;5082096;28;20268;-70
2022/10/08 02:45:20;;;;;;;13.35;8.60;;;;;;;;;;5082049;28;20193;-70
2022/10/08 02:47:48;;;;;;;15.15;9.38;;;;;;;;;;5082029;28;20472;-70
2022/10/08 02:50:17;;;;;;;10.82;8.70;;;;;;;;;;5082278;28;20196;-68
2022/10/08 02:52:44;;;;;;;21.00;9.55;;;;;;;;;;5081813;28;20212;-68
2022/10/08 02:55:18;;;;;;;14.68;10.10;;;;;;;;;;5082105;28;20223;-68
2022/10/08 02:57:46;;;;;;;14.43;9.10;;;;;;;;;;5082617;28;20209;-70
2022/10/08 03:00:12;;;;;;;14.40;9.63;;;;;;;;;;5086066;28;20478;-70
2022/10/08 03:02:42;;;;;;;12.27;9.40;;;;;;;;;;5085742;28;20227;-70
2022/10/08 03:05:12;;;;;;;16.60;9.00;;;;;;;;;;5085659;28;20224;-69
2022/10/08 03:07:38;;;;;;;15.45;8.43;;;;;;;;;;5085947;28;20442;-69
2022/10/08 03:10:06;;;;;;;11.50;8.80;;;;;;;;;;5085796;28;20196;-69
2022/10/08 03:12:34;;;;;;;15.20;9.55;;;;;;;;;;5085791;28;20196;-69
2022/10/08 03:15:01;;;;;;;15.15;8.68;;;;;;;;;;5085710;28;20203;-69
2022/10/08 03:17:29;;;;;;;16.50;9.55;;;;;;;;;;5085626;28;20306;-69
2022/10/08 03:19:55;;;;;;;11.82;9.77;;;;;;;;;;5085618;28;20395;-69
2022/10/08 03:22:22;;;;;;;11.40;8.50;;;;;;;;;;5085451;28;20492;-69
2022/10/08 03:24:49;;;;;;;10.68;9.25;;;;;;;;;;5085609;28;20488;-68
2022/10/08 03:27:15;;;;;;;13.95;9.40;;;;;;;;;;5085721;28;20193;-69
2022/10/08 03:29:43;;;;;;;10.70;9.23;;;;;;;;;;5085477;28;20398;-69
2022/10/08 03:32:09;;;;;;;9.10;8.20;;;;;;;;;;5085063;28;20202;-69
2022/10/08 03:34:35;;;;;;;11.43;8.85;;;;;;;;;;5085134;28;20196;-69
2022/10/08 03:37:02;;;;;;;16.10;9.30;;;;;;;;;;5085472;28;20216;-69
2022/10/08 03:39:28;;;;;;;11.00;8.27;;;;;;;;;;5085411;28;20204;-68
2022/10/08 03:41:54;;;;;;;14.73;9.25;;;;;;;;;;5085309;28;20539;-68
2022/10/08 03:44:21;;;;;;;10.93;9.23;;;;;;;;;;5085024;28;20536;-71
2022/10/08 03:46:48;;;;;;;11.00;8.77;;;;;;;;;;5084855;28;20193;-68
2022/10/08 03:49:14;;;;;;;10.88;8.20;;;;;;;;;;5085288;28;20196;-69
2022/10/08 03:51:41;;;;;;;9.57;8.10;;;;;;;;;;5084991;28;20264;-69
2022/10/08 03:54:08;;;;;;;9.95;8.98;;;;;;;;;;5084640;28;20392;-69
2022/10/08 03:56:34;;;;;;;10.88;8.10;;;;;;;;;;5084952;28;20244;-69
2022/10/08 03:59:02;;;;;;;10.10;9.20;;;;;;;;;;5084681;28;20197;-71
2022/10/08 04:01:28;;;;;;;9.13;8.23;;;;;;;;;;5084923;28;20197;-71
2022/10/08 04:03:56;;;;;;;11.30;8.75;;;;;;;;;;5084414;28;20204;-71
2022/10/08 04:06:23;;;;;;;9.70;8.20;;;;;;;;;;5084459;28;20221;-70
2022/10/08 04:08:49;;;;;;;12.77;7.95;;;;;;;;;;5084330;28;20197;-70
2022/10/08 04:11:16;;;;;;;11.73;8.88;;;;;;;;;;5084440;28;20408;-69
2022/10/08 04:13:43;;;;;;;9.35;8.45;;;;;;;;;;5084227;28;20365;-69
2022/10/08 04:16:11;;;;;;;10.68;9.52;;;;;;;;;;5084321;28;20496;-69
2022/10/08 04:18:37;;;;;;;16.00;10.30;;;;;;;;;;5084715;28;20228;-70
2022/10/08 04:21:05;;;;;;;12.82;9.98;;;;;;;;;;5084321;28;20215;-70
2022/10/08 04:23:33;;;;;;;14.18;10.40;;;;;;;;;;5084382;28;20197;-71
2022/10/08 04:25:59;;;;;;;13.52;9.35;;;;;;;;;;5084405;28;20205;-70
2022/10/08 04:28:25;;;;;;;11.05;9.82;;;;;;;;;;5084209;28;20209;-70
2022/10/08 04:30:55;;;;;;;13.77;9.80;;;;;;;;;;5084113;28;20185;-70
2022/10/08 04:33:22;;;;;;;12.70;10.57;;;;;;;;;;5083866;28;20196;-71
2022/10/08 04:35:48;;;;;;;10.85;9.18;;;;;;;;;;5084457;28;20409;-70
2022/10/08 04:38:16;;;;;;;20.70;10.25;;;;;;;;;;5084294;28;20220;-69
2022/10/08 04:40:42;;;;;;;16.52;11.63;;;;;;;;;;5084090;28;20188;-69
2022/10/08 04:43:08;;;;;;;15.30;12.00;;;;;;;;;;5084256;28;20204;-68
2022/10/08 04:45:35;;;;;;;17.35;10.98;;;;;;;;;;5083992;28;20416;-68
2022/10/08 04:48:01;;;;;;;24.02;11.77;;;;;;;;;;5083688;28;20198;-68
2022/10/08 04:50:27;;;;;;;12.65;9.88;;;;;;;;;;5083864;28;20199;-68
2022/10/08 04:52:53;;;;;;;15.32;10.52;;;;;;;;;;5083878;28;20392;-71
2022/10/08 04:55:23;;;;;;;13.57;10.15;;;;;;;;;;5083995;28;20196;-71
2022/10/08 04:57:49;;;;;;;12.85;10.10;;;;;;;;;;5083722;28;20531;-70
2022/10/08 05:00:16;;;;;;;16.50;10.50;;;;;;;;;;5083721;28;20211;-68
2022/10/08 05:02:42;;;;;;;14.60;9.40;;;;;;;;;;5083109;28;20216;-68
2022/10/08 05:05:09;;;;;;;12.68;9.75;;;;;;;;;;5083416;28;20216;-68
2022/10/08 05:07:35;;;;;;;11.80;9.48;;;;;;;;;;5083542;28;20197;-68
2022/10/08 05:10:01;;;;;;;13.55;10.07;;;;;;;;;;5083407;28;20207;-68
2022/10/08 05:12:29;;;;;;;11.95;9.85;;;;;;;;;;5083038;28;20393;-69
2022/10/08 05:14:55;;;;;;;19.27;11.25;;;;;;;;;;5083155;28;20204;-69
2022/10/08 05:17:21;;;;;;;18.83;11.05;;;;;;;;;;5083396;28;20532;-69
2022/10/08 05:19:48;;;;;;;17.25;11.32;;;;;;;;;;5083504;28;20197;-69
2022/10/08 05:22:14;;;;;;;13.40;9.63;;;;;;;;;;5081870;28;20203;-70
2022/10/08 05:24:40;;;;;;;11.73;9.52;;;;;;;;;;5083348;28;20369;-68
2022/10/08 05:27:06;;;;;;;14.90;10.57;;;;;;;;;;5083256;28;20200;-68
2022/10/08 05:29:34;;;;;;;15.77;9.80;;;;;;;;;;5083223;28;20509;-68
2022/10/08 05:32:00;;;;;;;16.45;9.90;;;;;;;;;;5083057;28;20188;-68
2022/10/08 05:34:27;;;;;;;11.40;9.70;;;;;;;;;;5082902;28;20218;-69
2022/10/08 05:36:53;;;;;;;11.65;9.65;;;;;;;;;;5083006;28;20212;-70
2022/10/08 05:39:19;;;;;;;12.25;9.60;;;;;;;;;;5083067;28;20200;-70
2022/10/08 05:41:46;;;;;;;13.27;8.82;;;;;;;;;;5082712;28;20197;-70
2022/10/08 05:44:12;;;;;;;16.15;10.05;;;;;;;;;;5082676;28;20363;-70
2022/10/08 05:46:40;;;;;;;12.75;9.32;;;;;;;;;;5082908;28;20202;-70
2022/10/08 05:49:07;;;;;;;17.35;9.73;;;;;;;;;;5082655;28;20196;-70
2022/10/08 05:51:34;;;;;;;11.40;9.20;;;;;;;;;;5083003;28;20203;-70
2022/10/08 05:54:01;;;;;;;14.82;9.50;;;;;;;;;;5082379;28;20196;-70
2022/10/08 05:56:27;;;;;;;14.88;10.07;;;;;;;;;;5082479;28;20203;-70
2022/10/08 05:58:54;;;;;;;11.48;9.63;;;;;;;;;;5082231;28;20540;-70
2022/10/08 06:01:21;;;;;;;11.52;9.63;;;;;;;;;;5082781;28;20204;-69
2022/10/08 06:03:50;;;;;;;14.52;9.68;;;;;;;;;;5082164;28;20196;-70
2022/10/08 06:06:16;;;;;;;13.75;9.38;;;;;;;;;;5082169;28;20216;-69
2022/10/08 06:08:42;;;;;;;14.32;9.60;;;;;;;;;;5082656;28;20377;-70
2022/10/08 06:11:14;;;;;;;10.73;9.52;;;;;;;;;;5082325;28;20197;-69
2022/10/08 06:13:40;;;;;;;13.15;10.05;;;;;;;;;;5081891;28;20242;-69
2022/10/08 06:16:07;;;;;;;14.32;10.00;;;;;;;;;;5082391;28;20287;-70
2022/10/08 06:18:34;;;;;;;14.00;10.07;;;;;;;;;;5082662;28;20239;-70
2022/10/08 06:21:03;;;;;;;13.38;9.50;;;;;;;;;;5082182;28;20203;-69
2022/10/08 06:23:29;;;;;;;15.80;9.90;;;;;;;;;;5082008;28;20391;-69
2022/10/08 06:25:55;;;;;;;13.93;10.27;;;;;;;;;;5082364;28;20196;-70
2022/10/08 06:28:22;;;;;;;12.95;9.38;;;;;;;;;;5082321;28;20464;-70
2022/10/08 06:30:48;;;;;;;11.30;9.43;;;;;;;;;;5082282;28;20202;-70
2022/10/08 06:33:15;;;;;;;10.55;9.02;;;;;;;;;;5081663;28;20197;-70
2022/10/08 06:35:42;;;;;;;11.02;9.45;;;;;;;;;;5082164;28;20387;-70
2022/10/08 06:38:09;;;;;;;15.80;9.60;;;;;;;;;;5081746;28;20213;-70
2022/10/08 06:40:37;;;;;;;11.45;9.32;;;;;;;;;;5081788;28;20200;-70
2022/10/08 06:43:06;;;;;;;10.60;9.32;;;;;;;;;;5081978;28;20210;-70
2022/10/08 06:45:32;;;;;;;11.82;9.85;;;;;;;;;;5082034;28;20267;-70
2022/10/08 06:47:59;;;;;;;11.60;9.43;;;;;;;;;;5082220;28;20358;-70
2022/10/08 06:50:25;;;;;;;11.23;9.88;;;;;;;;;;5081958;28;20236;-70
2022/10/08 06:52:51;;;;;;;13.32;10.05;;;;;;;;;;5081782;28;20497;-70
2022/10/08 06:55:19;;;;;;;13.23;9.93;;;;;;;;;;5081965;28;20200;-70
2022/10/08 06:57:45;;;;;;;12.82;9.40;;;;;;;;;;5082049;28;20220;-70
2022/10/08 07:00:12;;;;;;;15.50;9.65;;;;;;;;;;5084568;28;20260;-70
2022/10/08 07:02:38;;;;;;;12.50;9.98;;;;;;;;;;5082288;28;20460;-70
2022/10/08 07:05:05;;;;;;;15.00;11.13;;;;;;;;;;5081870;28;20216;-70
2022/10/08 07:07:31;;;;;;;15.73;11.13;;;;;;;;;;5081473;28;20522;-69
2022/10/08 07:09:57;;;;;;;13.05;10.75;;;;;;;;;;5082006;28;20332;-69
2022/10/08 07:12:25;;;;;;;16.15;10.60;;;;;;;;;;5081858;28;20220;-71
2022/10/08 07:14:51;;;;;;;17.15;10.98;;;;;;;;;;5064701;28;20213;-70
2022/10/08 07:17:18;;;;;;;23.73;12.70;;;;;;;;;;5069688;28;20215;-70
2022/10/08 07:19:44;;;;;;;22.30;13.13;;;;;;;;;;5075670;28;20215;-69
2022/10/08 07:22:10;;;;;;;18.52;12.45;;;;;;;;;;5075388;28;20424;-67
2022/10/08 07:24:36;;;;;;;18.45;12.77;;;;;;;;;;5075616;28;20212;-68
2022/10/08 07:27:04;;;;;;;17.13;13.23;;;;;;;;;;5075498;28;20216;-67
2022/10/08 07:29:32;;;;;;;23.50;14.70;;;;;;;;;;5075599;28;20234;-68
2022/10/08 07:31:58;;;;;;;19.67;15.75;;;;;;;;;;5076166;28;20209;-68
2022/10/08 07:34:24;;;;;;;22.13;15.18;;;;;;;;;;5080315;28;20421;-68
2022/10/08 07:36:51;;;;;;;17.45;13.75;;;;;;;;;;5081627;28;20201;-68
2022/10/08 07:39:18;;;;;;;17.48;13.23;;;;;;;;;;5081708;28;20258;-68
2022/10/08 07:41:45;;;;;;;19.95;13.75;;;;;;;;;;5081722;28;20196;-68
2022/10/08 07:44:12;;;;;;;19.08;13.05;;;;;;;;;;5081303;28;20197;-68
2022/10/08 07:46:42;;;;;;;17.63;12.30;;;;;;;;;;5085192;28;20203;-68
2022/10/08 07:49:08;;;;;;;26.30;11.55;;;;;;;;;;5085266;28;20234;-61
2022/10/08 07:51:35;;;;;;;25.45;12.20;;;;;;;;;;5085255;28;20196;-61
2022/10/08 07:54:03;;;;;;;24.08;11.35;;;;;;;;;;5085066;28;20204;-65
2022/10/08 07:56:29;;;;;;;15.68;9.20;;;;;;;;;;5084850;28;20197;-65
2022/10/08 07:58:55;;;;;;;13.35;7.78;;;;;;;;;;5084881;28;20224;-65
2022/10/08 08:01:27;;;;;;;15.60;7.95;;;;;;;;;;5085036;28;20196;-65
2022/10/08 08:03:55;;;;;;;13.15;8.02;;;;;;;;;;5084459;28;20204;-65
2022/10/08 08:06:22;;;;;;;14.40;7.22;;;;;;;;;;5084916;28;20586;-65
2022/10/08 08:08:49;;;;;;;11.00;7.00;;;;;;;;;;5084691;28;20185;-65
2022/10/08 08:11:17;;;;;;;12.10;6.45;;;;;;;;;;5084846;28;20196;-65
2022/10/08 08:13:43;;;;;;;11.75;4.93;;;;;;;;;;5084533;28;20219;-65
2022/10/08 08:16:11;;;;;;;11.20;4.35;;;;;;;;;;5084573;28;20340;-65
2022/10/08 08:18:38;;;;;;;7.95;4.57;;;;;;;;;;5084864;28;20554;-61
2022/10/08 08:21:06;;;;;;;7.43;3.42;;;;;;;;;;5084580;28;20203;-61
2022/10/08 08:23:33;;;;;;;4.15;3.22;;;;;;;;;;5084447;28;20203;-60
2022/10/08 08:26:00;;;;;;;10.90;4.13;;;;;;;;;;5084412;28;20361;-61
2022/10/08 08:28:27;;;;;;;11.07;4.00;;;;;;;;;;5084178;28;20430;-61
2022/10/08 08:30:54;;;;;;;6.18;3.85;;;;;;;;;;5084204;28;20196;-61
2022/10/08 08:33:20;;;;;;;9.18;3.72;;;;;;;;;;5084010;28;20196;-61
2022/10/08 08:35:50;;;;;;;10.40;3.60;;;;;;;;;;5084606;28;20202;-61
2022/10/08 08:38:17;;;;;;;10.63;3.92;;;;;;;;;;5084302;28;20402;-61
2022/10/08 08:40:44;;;;;;;12.07;4.40;;;;;;;;;;5084009;28;20197;-61
2022/10/08 08:43:10;;;;;;;6.80;3.15;;;;;;;;;;5083888;28;20203;-60
2022/10/08 08:45:37;;;;;;;9.05;3.30;;;;;;;;;;5083967;28;20209;-61
2022/10/08 08:48:07;;;;;;;7.85;3.10;;;;;;;;;;5084105;28;20192;-60
2022/10/08 08:50:35;;;;;;;9.43;2.95;;;;;;;;;;5083798;28;20197;-60
2022/10/08 08:53:02;;;;;;;8.48;3.10;;;;;;;;;;5083913;28;20196;-65
2022/10/08 08:55:33;;;;;;;8.73;3.22;;;;;;;;;;5083933;28;20201;-66
2022/10/08 08:58:03;;;;;;;7.82;4.30;;;;;;;;;;5084190;28;20526;-65
2022/10/08 09:00:33;;;;;;;13.50;4.15;;;;;;;;;;5083636;28;20203;-62
2022/10/08 09:03:01;;;;;;;4.50;2.97;;;;;;;;;;5083727;28;20377;-61
2022/10/08 09:05:29;;;;;;;10.52;3.85;;;;;;;;;;5083471;28;20220;-61
2022/10/08 09:07:58;;;;;;;9.18;3.38;;;;;;;;;;5083426;28;20246;-61
2022/10/08 09:10:29;;;;;;;8.07;2.80;;;;;;;;;;5083589;28;20502;-60
2022/10/08 09:12:57;;;;;;;11.07;3.20;;;;;;;;;;5083244;28;20263;-61
2022/10/08 09:15:25;;;;;;;12.23;3.28;;;;;;;;;;5080337;28;20407;-64
2022/10/08 09:17:52;;;;;;;12.90;3.05;;;;;;;;;;5073740;28;20249;-64
2022/10/08 09:20:19;;;;;;;10.13;3.70;;;;;;;;;;5068022;28;20388;-64
2022/10/08 09:22:46;;;;;;;12.48;3.35;;;;;;;;;;5079021;28;20204;-65
2022/10/08 09:25:14;;;;;;;11.98;3.65;;;;;;;;;;5080136;28;20395;-64
2022/10/08 09:27:44;;;;;;;13.35;3.75;;;;;;;;;;5080614;28;20204;-65
2022/10/08 09:30:26;;;;;;;10.32;3.92;;;;;;;;;;5081250;28;20212;-64
2022/10/08 09:32:53;;;;;;;18.10;3.70;;;;;;;;;;5081415;28;20207;-65
2022/10/08 09:35:19;;;;;;;10.45;3.25;;;;;;;;;;5080366;28;20219;-64
2022/10/08 09:37:46;;;;;;;9.70;3.33;;;;;;;;;;5080149;28;20201;-65
2022/10/08 09:40:18;;;;;;;10.48;2.97;;;;;;;;;;5080026;28;20205;-65
2022/10/08 09:42:44;;;;;;;11.45;3.45;;;;;;;;;;5079840;28;20404;-65
2022/10/08 09:45:30;;;;;;;8.52;3.00;;;;;;;;;;5080526;28;20211;-63
2022/10/08 09:48:12;;;;;;;8.68;2.50;;;;;;;;;;5081034;28;20208;-65
2022/10/08 09:50:38;;;;;;;7.68;2.47;;;;;;;;;;5080275;28;20471;-63
2022/10/08 09:53:05;;;;;;;7.47;2.33;;;;;;;;;;5079406;28;20210;-63
2022/10/08 09:55:34;;;;;;;9.60;2.67;;;;;;;;;;5079924;28;20508;-65
2022/10/08 09:58:01;;;;;;;10.55;2.78;;;;;;;;;;5079618;28;20210;-64
2022/10/08 10:00:30;;;;;;;8.52;2.80;;;;;;;;;;5079604;28;20242;-65
2022/10/08 10:02:58;;;;;;;8.13;2.72;;;;;;;;;;5080292;28;20208;-65
2022/10/08 10:05:28;;;;;;;7.93;2.63;;;;;;;;;;5081142;28;20225;-64
2022/10/08 10:07:54;;;;;;;8.00;2.60;;;;;;;;;;5079541;28;20232;-64
2022/10/08 10:10:23;;;;;;;12.70;2.40;;;;;;;;;;5079993;28;20234;-64
2022/10/08 10:12:52;;;;;;;13.25;2.40;;;;;;;;;;5079340;28;20232;-65
2022/10/08 10:15:20;;;;;;;10.18;2.40;;;;;;;;;;5079607;28;20235;-61
2022/10/08 10:17:50;;;;;;;5.95;2.20;;;;;;;;;;5079640;28;20210;-63
2022/10/08 10:20:20;;;;;;;6.57;2.00;;;;;;;;;;5079795;28;20552;-63
2022/10/08 10:22:52;;;;;;;7.35;2.40;;;;;;;;;;5079255;28;20204;-64
2022/10/08 10:25:24;;;;;;;8.68;2.63;;;;;;;;;;5080087;28;20196;-63
2022/10/08 10:27:52;;;;;;;9.40;2.15;;;;;;;;;;5079739;28;20230;-63
2022/10/08 10:30:20;;;;;;;6.35;2.08;;;;;;;;;;5079613;28;20513;-63
2022/10/08 10:32:49;;;;;;;8.27;2.40;;;;;;;;;;5079274;28;20204;-64
2022/10/08 10:35:20;;;;;;;6.55;2.55;;;;;;;;;;5079496;28;20203;-63
2022/10/08 10:37:49;;;;;;;6.68;2.40;;;;;;;;;;5079388;28;20508;-64
2022/10/08 10:40:28;;;;;;;9.20;2.75;;;;;;;;;;5079437;28;20224;-63
2022/10/08 10:42:58;;;;;;;7.38;2.70;;;;;;;;;;5078961;28;20192;-63
2022/10/08 10:45:26;;;;;;;12.90;2.42;;;;;;;;;;5079861;28;20199;-64
2022/10/08 10:47:53;;;;;;;9.35;2.42;;;;;;;;;;5079282;28;20204;-64
2022/10/08 10:50:23;;;;;;;7.18;2.75;;;;;;;;;;5079247;28;20226;-64
2022/10/08 10:52:53;;;;;;;10.95;2.60;;;;;;;;;;5079125;28;20204;-63
2022/10/08 10:55:21;;;;;;;8.02;2.08;;;;;;;;;;5079320;28;20507;-61
2022/10/08 10:58:02;;;;;;;9.57;2.33;;;;;;;;;;5079330;28;20209;-61
2022/10/08 11:00:32;;;;;;;7.68;2.10;;;;;;;;;;5078946;28;20589;-65
2022/10/08 11:03:02;;;;;;;10.07;2.17;;;;;;;;;;5078887;28;20204;-63
2022/10/08 11:05:30;;;;;;;5.20;2.38;;;;;;;;;;5079285;28;20555;-61
2022/10/08 11:08:16;;;;;;;7.20;2.50;;;;;;;;;;5078973;28;20235;-62
2022/10/08 11:10:53;;;;;;;7.18;2.55;;;;;;;;;;5078775;28;20204;-61
2022/10/08 11:13:27;;;;;;;9.45;2.60;;;;;;;;;;5078885;28;20388;-61
2022/10/08 11:16:00;;;;;;;9.88;2.33;;;;;;;;;;5079371;28;20197;-63
2022/10/08 11:18:31;;;;;;;8.05;2.65;;;;;;;;;;5079375;28;20205;-60
2022/10/08 11:21:04;;;;;;;8.93;3.10;;;;;;;;;;5082074;28;20218;-62
2022/10/08 11:23:40;;;;;;;9.85;2.28;;;;;;;;;;5082892;28;20208;-61
2022/10/08 11:26:12;;;;;;;7.63;3.28;;;;;;;;;;5083102;28;20420;-61
2022/10/08 11:28:46;;;;;;;11.55;2.22;;;;;;;;;;5082661;28;20216;-61
2022/10/08 11:31:19;;;;;;;7.60;2.42;;;;;;;;;;5082790;28;20448;-60
2022/10/08 11:33:46;;;;;;;8.80;2.08;;;;;;;;;;5082304;28;20215;-59
2022/10/08 11:36:23;;;;;;;8.02;2.40;;;;;;;;;;5082449;28;20204;-59
2022/10/08 11:38:51;;;;;;;7.95;2.30;;;;;;;;;;5082212;28;20220;-60
2022/10/08 11:41:21;;;;;;;8.40;2.00;;;;;;;;;;5081768;28;20208;-62
2022/10/08 11:43:52;;;;;;;6.85;2.00;;;;;;;;;;5082103;28;20528;-61
2022/10/08 11:46:21;;;;;;;10.27;2.88;;;;;;;;;;5082314;28;20211;-62
2022/10/08 11:48:47;;;;;;;9.65;2.00;;;;;;;;;;5082650;28;20384;-61
2022/10/08 11:51:38;;;;;;;8.23;2.40;;;;;;;;;;5082341;28;20204;-61
2022/10/08 11:54:11;;;;;;;6.03;1.90;;;;;;;;;;5063227;28;20434;-62
2022/10/08 11:56:39;;;;;;;9.02;2.22;;;;;;;;;;5086825;28;20208;-63
2022/10/08 11:59:09;;;;;;;7.35;2.35;;;;;;;;;;5083231;28;20224;-60
2022/10/08 12:01:48;;;;;;;5.32;2.08;;;;;;;;;;5082091;28;20204;-60
2022/10/08 12:04:18;;;;;;;7.97;1.73;;;;;;;;;;5081922;28;20195;-60
2022/10/08 12:06:45;;;;;;;4.65;1.83;;;;;;;;;;5081850;28;20232;-60
2022/10/08 12:09:21;;;;;;;7.88;2.15;;;;;;;;;;5082120;28;20201;-60
2022/10/08 12:11:49;;;;;;;8.75;2.78;;;;;;;;;;5081864;28;20267;-60
2022/10/08 12:14:33;;;;;;;9.45;2.20;;;;;;;;;;5081740;28;20196;-61
2022/10/08 12:17:11;;;;;;;9.23;2.20;;;;;;;;;;5071480;28;20208;-60
2022/10/08 12:20:07;;;;;;;9.27;1.70;;;;;;;;;;5081621;28;20251;-60
2022/10/08 12:22:44;;;;;;;6.78;1.95;;;;;;;;;;5081853;28;20204;-61
2022/10/08 12:25:31;;;;;;;8.10;3.30;;;;;;;;;;5081746;28;20204;-59
2022/10/08 12:28:12;;;;;;;5.07;1.60;;;;;;;;;;5082169;28;20211;-60
2022/10/08 12:30:46;;;;;;;7.63;1.90;;;;;;;;;;5080634;28;20283;-61
2022/10/08 12:33:14;;;;;;;9.57;1.88;;;;;;;;;;5081272;28;20211;-63
2022/10/08 12:35:44;;;;;;;16.50;2.00;;;;;;;;;;5081163;28;20211;-63
2022/10/08 12:38:27;;;;;;;7.78;1.70;;;;;;;;;;5078589;28;20246;-63
2022/10/08 12:40:59;;;;;;;4.65;1.80;;;;;;;;;;5078326;28;20475;-63
2022/10/08 12:43:31;;;;;;;9.23;1.98;;;;;;;;;;5078070;28;20200;-63
2022/10/08 12:46:01;;;;;;;5.53;1.70;;;;;;;;;;5078009;28;20509;-63
2022/10/08 12:48:34;;;;;;;7.55;1.80;;;;;;;;;;5078127;28;20201;-62
2022/10/08 12:51:12;;;;;;;5.82;1.33;;;;;;;;;;5078485;28;20210;-62
2022/10/08 12:53:42;;;;;;;6.30;1.90;;;;;;;;;;5078179;28;20214;-63
2022/10/08 12:56:14;;;;;;;4.10;1.52;;;;;;;;;;5078065;28;20445;-63
2022/10/08 12:58:42;;;;;;;6.40;1.83;;;;;;;;;;5078076;28;20283;-62
2022/10/08 13:01:12;;;;;;;7.75;1.67;;;;;;;;;;5077982;28;20228;-63
2022/10/08 13:03:39;;;;;;;7.85;1.55;;;;;;;;;;5077662;28;20216;-63
2022/10/08 13:06:16;;;;;;;6.90;1.77;;;;;;;;;;5077317;28;20233;-62
2022/10/08 13:08:42;;;;;;;38.42;2.90;;;;;;;;;;5077765;28;20208;-64
2022/10/08 13:11:09;;;;;;;73.85;5.25;;;;;;;;;;5077805;28;20209;-64
2022/10/08 13:13:47;;;;;;;8.45;1.88;;;;;;;;;;5077577;28;20209;-64
2022/10/08 13:16:14;;;;;;;6.35;1.38;;;;;;;;;;5057237;28;20275;-64
2022/10/08 13:18:43;;;;;;;5.90;1.50;;;;;;;;;;5057208;28;20291;-64
2022/10/08 13:21:23;;;;;;;5.95;1.50;;;;;;;;;;5057582;28;20228;-64
2022/10/08 13:23:50;;;;;;;3.97;1.50;;;;;;;;;;5057308;28;20274;-64
2022/10/08 13:26:35;;;;;;;4.57;1.67;;;;;;;;;;5057805;28;20216;-63
2022/10/08 13:29:16;;;;;;;3.13;1.10;;;;;;;;;;5057625;28;20217;-60
2022/10/08 13:31:43;;;;;;;4.72;1.67;;;;;;;;;;5057572;28;20215;-60
2022/10/08 13:34:17;;;;;;;7.35;1.23;;;;;;;;;;5057472;28;20217;-64
2022/10/08 13:36:46;;;;;;;3.95;1.42;;;;;;;;;;5057339;28;20209;-63
2022/10/08 13:39:18;;;;;;;4.32;1.02;;;;;;;;;;5057802;28;20461;-65
2022/10/08 13:41:48;;;;;;;4.05;1.33;;;;;;;;;;5056767;28;20209;-64
2022/10/08 13:44:15;;;;;;;4.68;1.45;;;;;;;;;;5056613;28;20637;-63
2022/10/08 13:46:41;;;;;;;3.65;1.48;;;;;;;;;;5056688;28;20431;-63
2022/10/08 13:49:18;;;;;;;5.68;1.17;;;;;;;;;;5057040;28;20209;-63
2022/10/08 13:51:44;;;;;;;2.22;1.00;;;;;;;;;;5057063;28;20208;-65
2022/10/08 13:54:10;;;;;;;3.60;1.08;;;;;;;;;;5056388;28;20213;-62
2022/10/08 13:56:37;;;;;;;2.28;1.00;;;;;;;;;;5056578;28;20215;-63
2022/10/08 13:59:03;;;;;;;2.85;1.00;;;;;;;;;;5056852;28;20213;-63
2022/10/08 14:01:29;;;;;;;3.00;1.10;;;;;;;;;;5056619;28;20227;-64
2022/10/08 14:03:55;;;;;;;4.72;1.10;;;;;;;;;;5056639;28;20280;-64
2022/10/08 14:06:23;;;;;;;3.33;1.40;;;;;;;;;;5056220;28;20228;-64
2022/10/08 14:08:49;;;;;;;5.18;1.33;;;;;;;;;;5057305;28;20276;-63
2022/10/08 14:11:16;;;;;;;4.50;1.48;;;;;;;;;;5057136;28;20735;-64
2022/10/08 14:13:42;;;;;;;5.78;1.50;;;;;;;;;;5056660;28;20205;-63
2022/10/08 14:16:09;;;;;;;6.65;1.20;;;;;;;;;;5076696;28;20506;-63
2022/10/08 14:18:35;;;;;;;4.10;1.52;;;;;;;;;;5076548;28;20208;-63
2022/10/08 14:21:01;;;;;;;2.90;1.20;;;;;;;;;;5076506;28;20575;-64
2022/10/08 14:23:30;;;;;;;6.18;1.55;;;;;;;;;;5076576;28;20210;-64
2022/10/08 14:25:57;;;;;;;3.78;1.42;;;;;;;;;;5076732;28;20208;-64
2022/10/08 14:28:23;;;;;;;2.28;1.52;;;;;;;;;;5076313;28;20216;-64
2022/10/08 14:30:49;;;;;;;5.65;1.30;;;;;;;;;;5076694;28;20487;-64
2022/10/08 14:33:16;;;;;;;5.68;1.10;;;;;;;;;;5076479;28;20311;-65
2022/10/08 14:35:42;;;;;;;3.28;1.48;;;;;;;;;;5076469;28;20215;-64
2022/10/08 14:38:09;;;;;;;5.95;1.38;;;;;;;;;;5075873;28;20512;-64
2022/10/08 14:40:36;;;;;;;4.90;1.40;;;;;;;;;;5075767;28;20228;-64
2022/10/08 14:43:03;;;;;;;4.50;1.35;;;;;;;;;;5075490;28;20266;-64